Time;durP1;ratioP1;P1;durP2;ratioP2;P2;SDS_P1;SDS_P2;PMS_P1;PMS_P2;Temp;Humidity;BMP_temperature;BMP_pressure;BME280_temperature;BME280_humidity;BME280_pressure;Samples;Min_cycle;Max_cycle;Signal;HPM_P1;HPM_P2
2022/02/05 00:01:45;;;;;;;104.19;44.35;;;;;;;;;;354614;147;857747;-55
2022/02/05 00:02:46;;;;;;;99.26;42.68;;;;;;;;;;355201;147;857127;-57
2022/02/05 00:03:46;;;;;;;95.30;42.23;;;;;;;;;;355811;147;857540;-58
2022/02/05 00:04:46;;;;;;;98.06;42.02;;;;;;;;;;357214;147;864762;-57
2022/02/05 00:05:53;;;;;;;83.24;36.40;;;;;;;;;;358460;147;859047;-57
2022/02/05 00:06:53;;;;;;;68.36;33.01;;;;;;;;;;355548;149;865535;-57
2022/02/05 00:08:12;;;;;;;69.76;32.79;;;;;;;;;;356336;147;859943;-57
2022/02/05 00:09:15;;;;;;;81.06;35.58;;;;;;;;;;355771;147;858141;-57
2022/02/05 00:11:27;;;;;;;94.68;38.16;;;;;;;;;;337430;156;865222;-57
2022/02/05 00:15:52;;;;;;;82.98;34.09;;;;;;;-5.43;62.65;99832.57;373332;141;877103;-56
2022/02/05 00:38:53;;;;;;;53.16;23.68;;;;;;;-5.34;63.71;99806.94;361608;144;867021;-57
2022/02/05 00:41:11;;;;;;;49.79;23.73;;;;;;;-5.31;63.67;99802.95;361931;144;857262;-57
2022/02/05 00:42:15;;;;;;;49.47;22.26;;;;;;;-5.25;63.76;99809.98;359759;144;857134;-57
2022/02/05 00:43:13;;;;;;;56.59;25.08;;;;;;;-5.21;63.28;99803.43;351115;153;859004;-56
2022/02/05 00:44:15;;;;;;;51.64;24.06;;;;;;;-5.18;63.23;99803.59;362290;144;857397;-57
2022/02/05 00:45:16;;;;;;;52.01;23.57;;;;;;;-5.15;63.06;99806.28;363054;144;865035;-57
2022/02/05 00:46:20;;;;;;;55.77;24.43;;;;;;;-5.15;62.68;99798.70;361351;147;857350;-57
2022/02/05 00:47:22;;;;;;;49.95;23.88;;;;;;;-5.12;62.89;99798.86;362176;147;857447;-57
2022/02/05 00:48:24;;;;;;;48.44;22.49;;;;;;;-5.07;62.96;99794.08;361767;144;864979;-56
2022/02/05 00:49:26;;;;;;;47.63;23.07;;;;;;;-5.09;62.43;99793.98;362934;144;857195;-57
2022/02/05 00:50:31;;;;;;;52.43;23.59;;;;;;;-5.10;61.97;99798.96;362619;144;858953;-56
2022/02/05 00:51:44;;;;;;;48.51;22.91;;;;;;;-5.13;62.24;99789.55;361616;145;857701;-57
2022/02/05 00:52:39;;;;;;;48.38;22.82;;;;;;;-5.13;62.82;99794.60;361938;146;857325;-57
2022/02/05 00:53:43;;;;;;;47.33;23.61;;;;;;;;;;363796;145;857549;-57
2022/02/05 00:54:49;;;;;;;52.46;24.99;;;;;;;;;;361394;144;864959;-57
2022/02/05 00:55:55;;;;;;;55.17;25.52;;;;;;;;;;361477;145;858764;-57
2022/02/05 00:58:03;;;;;;;46.66;22.82;;;;;;;;;;363489;147;857329;-56
2022/02/05 00:59:04;;;;;;;52.94;22.55;;;;;;;;;;365416;144;857431;-57
2022/02/05 01:00:08;;;;;;;43.03;21.21;;;;;;;;;;362420;147;857407;-57
2022/02/05 01:01:10;;;;;;;45.59;21.08;;;;;;;;;;360722;147;856385;-56
2022/02/05 01:02:12;;;;;;;46.07;21.67;;;;;;;;;;353155;147;858101;-59
2022/02/05 01:03:13;;;;;;;42.43;19.26;;;;;;;;;;351732;150;857334;-56
2022/02/05 01:04:15;;;;;;;44.94;20.67;;;;;;;;;;359414;147;857278;-56
2022/02/05 01:05:17;;;;;;;40.72;19.44;;;;;;;;;;362573;144;862129;-58
2022/02/05 01:06:19;;;;;;;36.47;17.96;;;;;;;;;;360974;145;865064;-58
2022/02/05 01:07:21;;;;;;;35.95;18.31;;;;;;;;;;362733;146;864520;-59
2022/02/05 01:08:25;;;;;;;35.76;16.14;;;;;;;;;;360510;147;864668;-58
2022/02/05 01:09:26;;;;;;;30.76;15.08;;;;;;;;;;361231;144;860096;-58
2022/02/05 01:10:28;;;;;;;33.27;15.75;;;;;;;;;;360877;146;861274;-58
2022/02/05 01:11:30;;;;;;;31.11;15.80;;;;;;;;;;363026;144;857474;-59
2022/02/05 01:12:34;;;;;;;34.59;16.24;;;;;;;;;;361321;144;865236;-58
2022/02/05 01:13:36;;;;;;;33.51;16.61;;;;;;;;;;362078;146;865082;-58
2022/02/05 01:14:49;;;;;;;34.59;16.38;;;;;;;;;;362669;145;859717;-58
2022/02/05 01:15:54;;;;;;;30.71;13.76;;;;;;;;;;358567;145;865124;-58
2022/02/05 01:16:59;;;;;;;30.85;14.58;;;;;;;;;;353431;148;857318;-56
2022/02/05 01:18:01;;;;;;;30.97;14.59;;;;;;;;;;362615;145;857816;-57
2022/02/05 01:19:00;;;;;;;32.89;16.44;;;;;;;;;;361987;147;857944;-57
2022/02/05 01:22:11;;;;;;;28.84;14.91;;;;;;;;;;363195;145;859221;-57
2022/02/05 01:23:16;;;;;;;30.48;15.44;;;;;;;;;;361942;145;858532;-56
2022/02/05 01:24:36;;;;;;;28.18;14.43;;;;;;;;;;360562;146;859595;-57
2022/02/05 01:25:45;;;;;;;30.99;14.66;;;;;;;;;;351035;149;857444;-57
2022/02/05 01:26:49;;;;;;;30.26;14.66;;;;;;;;;;355594;149;858920;-57
2022/02/05 01:27:53;;;;;;;29.16;14.35;;;;;;;;;;351585;149;866299;-57
2022/02/05 01:28:55;;;;;;;28.19;12.91;;;;;;;;;;352190;150;857232;-57
2022/02/05 01:30:57;;;;;;;29.52;13.42;;;;;;;;;;353110;149;858808;-57
2022/02/05 01:32:03;;;;;;;28.47;13.55;;;;;;;;;;353654;149;858245;-57
2022/02/05 01:34:16;;;;;;;25.73;12.27;;;;;;;;;;355728;149;857310;-55
2022/02/05 01:35:18;;;;;;;25.27;13.96;;;;;;;;;;355333;149;866856;-56
2022/02/05 01:49:29;;;;;;;26.21;13.41;;;;;;;;;;355093;149;865999;-58
2022/02/05 01:50:52;;;;;;;27.96;13.01;;;;;;;;;;353272;149;859295;-58
2022/02/05 01:51:38;;;;;;;24.31;12.92;;;;;;;;;;352510;149;858818;-58
2022/02/05 01:53:51;;;;;;;25.01;12.91;;;;;;;;;;339556;154;859773;-57
2022/02/05 01:55:03;;;;;;;29.15;13.48;;;;;;;;;;341324;154;858773;-59
2022/02/05 01:56:20;;;;;;;18.35;10.66;;;;;;;;;;348180;149;857507;-58
2022/02/05 01:57:19;;;;;;;26.32;12.27;;;;;;;;;;352664;151;858299;-57
2022/02/05 02:04:47;;;;;;;24.45;13.03;;;;;;;;;;337337;157;859658;-57
2022/02/05 02:04:51;;;;;;;26.54;13.64;;;;;;;;;;349616;151;859405;-58
2022/02/05 02:05:54;;;;;;;28.26;13.32;;;;;;;;;;347904;152;858352;-58
2022/02/05 02:10:35;;;;;;;26.73;13.69;;;;;;;;;;349711;150;859127;-58
2022/02/05 02:11:40;;;;;;;26.60;13.39;;;;;;;;;;350462;151;858697;-58
2022/02/05 02:12:43;;;;;;;29.01;13.84;;;;;;;;;;347226;151;857412;-58
2022/02/05 02:14:04;;;;;;;28.42;13.98;;;;;;;;;;347916;152;857467;-58
2022/02/05 02:14:56;;;;;;;24.86;11.95;;;;;;;;;;347317;152;857312;-57
2022/02/05 02:19:33;;;;;;;27.43;13.66;;;;;;;;;;348688;152;859219;-56
2022/02/05 02:20:45;;;;;;;26.19;13.46;;;;;;;;;;347334;149;857413;-57
2022/02/05 02:21:49;;;;;;;31.31;14.67;;;;;;;;;;349639;152;859551;-56
2022/02/05 02:23:00;;;;;;;26.53;14.33;;;;;;;;;;348034;152;857870;-59
2022/02/05 02:24:03;;;;;;;28.35;13.49;;;;;;;;;;345523;152;857833;-58
2022/02/05 02:25:11;;;;;;;26.99;13.94;;;;;;;;;;348058;152;866594;-58
2022/02/05 02:27:34;;;;;;;24.96;13.83;;;;;;;;;;347922;152;860738;-59
2022/02/05 02:28:41;;;;;;;27.31;14.05;;;;;;;;;;351805;151;857671;-56
2022/02/05 02:30:59;;;;;;;28.31;13.72;;;;;;;;;;348145;152;860202;-56
2022/02/05 02:31:57;;;;;;;27.46;13.59;;;;;;;;;;348811;152;857601;-56
2022/02/05 02:33:08;;;;;;;30.77;14.66;;;;;;;;;;353111;151;858687;-56
2022/02/05 02:34:05;;;;;;;27.41;13.59;;;;;;;;;;346926;152;857545;-58
2022/02/05 02:35:11;;;;;;;27.36;14.19;;;;;;;;;;350544;151;858384;-58
2022/02/05 02:36:15;;;;;;;28.51;14.06;;;;;;;;;;347974;152;857411;-58
2022/02/05 02:37:17;;;;;;;29.12;14.11;;;;;;;;;;345558;152;857540;-58
2022/02/05 02:38:21;;;;;;;25.55;13.66;;;;;;;;;;348447;152;866840;-58
2022/02/05 02:39:26;;;;;;;28.03;14.58;;;;;;;;;;348975;152;857369;-58
2022/02/05 02:40:40;;;;;;;29.18;13.18;;;;;;;;;;348218;152;858530;-58
2022/02/05 02:41:40;;;;;;;25.24;13.96;;;;;;;;;;345732;152;865050;-58
2022/02/05 02:42:40;;;;;;;20.45;10.61;;;;;;;;;;346210;152;858117;-58
2022/02/05 02:43:38;;;;;;;23.75;12.09;;;;;;;;;;349921;151;858413;-58
2022/02/05 02:44:40;;;;;;;24.80;13.21;;;;;;;;;;348585;152;859919;-58
2022/02/05 02:45:44;;;;;;;23.46;12.81;;;;;;;;;;349032;152;857381;-59
2022/02/05 02:46:45;;;;;;;30.77;13.60;;;;;;;;;;353160;152;864848;-58
2022/02/05 02:47:47;;;;;;;24.71;14.24;;;;;;;;;;347811;151;866192;-58
2022/02/05 02:48:50;;;;;;;25.40;14.70;;;;;;;;;;342127;155;865140;-58
2022/02/05 02:50:00;;;;;;;28.01;13.88;;;;;;;;;;350014;151;865049;-58
2022/02/05 02:57:29;;;;;;;21.21;12.45;;;;;;;;;;347975;150;865624;-57
2022/02/05 02:58:32;;;;;;;25.32;13.21;;;;;;;;;;346829;150;857719;-57
2022/02/05 02:59:49;;;;;;;22.62;11.46;;;;;;;;;;350076;150;857851;-56
2022/02/05 03:00:40;;;;;;;29.60;13.07;;;;;;;;;;349935;151;864885;-56
2022/02/05 03:01:43;;;;;;;22.17;10.92;;;;;;;;;;349788;151;857473;-57
2022/02/05 03:02:44;;;;;;;24.07;12.17;;;;;;;;;;352740;151;865664;-56
2022/02/05 03:03:46;;;;;;;24.01;11.34;;;;;;;;;;349042;154;859636;-56
2022/02/05 03:04:48;;;;;;;25.04;13.27;;;;;;;;;;349419;150;857217;-56
2022/02/05 03:05:49;;;;;;;24.84;12.79;;;;;;;;;;348490;151;857176;-56
2022/02/05 03:06:51;;;;;;;22.22;12.66;;;;;;;;;;348788;151;857542;-56
2022/02/05 03:07:52;;;;;;;24.47;12.96;;;;;;;;;;351453;150;867204;-56
2022/02/05 03:08:54;;;;;;;27.25;12.84;;;;;;;;;;349092;150;865098;-56
2022/02/05 03:09:56;;;;;;;25.25;12.83;;;;;;;;;;349693;150;860980;-56
2022/02/05 03:10:58;;;;;;;28.61;14.61;;;;;;;;;;353928;151;857212;-56
2022/02/05 03:11:59;;;;;;;31.01;13.67;;;;;;;;;;350181;150;857308;-58
2022/02/05 03:13:01;;;;;;;26.57;14.03;;;;;;;;;;346966;151;867401;-58
2022/02/05 03:14:03;;;;;;;30.58;15.99;;;;;;;;;;348710;151;865931;-56
2022/02/05 03:15:05;;;;;;;24.58;13.55;;;;;;;;;;349620;151;863430;-56
2022/02/05 03:16:07;;;;;;;28.27;13.37;;;;;;;;;;349348;151;857177;-57
2022/02/05 03:17:23;;;;;;;27.66;15.36;;;;;;;;;;348646;151;857842;-58
2022/02/05 03:18:46;;;;;;;21.93;12.22;;;;;;;;;;349074;151;858982;-58
2022/02/05 03:19:35;;;;;;;26.07;12.94;;;;;;;;;;347563;151;857460;-57
2022/02/05 03:20:36;;;;;;;23.70;11.99;;;;;;;;;;343074;154;859134;-58
2022/02/05 03:21:38;;;;;;;25.70;13.97;;;;;;;;;;346178;152;864810;-60
2022/02/05 03:22:40;;;;;;;25.65;13.44;;;;;;;;;;344853;152;857419;-58
2022/02/05 03:23:41;;;;;;;25.57;12.83;;;;;;;;;;347144;153;860750;-59
2022/02/05 03:24:43;;;;;;;28.18;15.42;;;;;;;;;;345040;153;857252;-58
2022/02/05 03:25:44;;;;;;;24.26;11.86;;;;;;;;;;345912;152;857694;-58
2022/02/05 03:26:46;;;;;;;27.49;13.54;;;;;;;;;;344015;154;866748;-57
2022/02/05 03:27:48;;;;;;;26.75;14.00;;;;;;;;;;346879;152;866894;-59
2022/02/05 03:28:49;;;;;;;27.58;14.37;;;;;;;;;;344591;150;859094;-58
2022/02/05 03:29:51;;;;;;;24.77;13.61;;;;;;;;;;344296;153;868610;-58
2022/02/05 03:30:53;;;;;;;23.73;13.58;;;;;;;;;;343745;153;866085;-59
2022/02/05 03:31:54;;;;;;;30.87;13.71;;;;;;;;;;344719;152;857439;-58
2022/02/05 03:32:58;;;;;;;30.44;14.79;;;;;;;;;;353538;149;864956;-58
2022/02/05 03:33:59;;;;;;;25.64;13.78;;;;;;;;;;348473;152;866771;-58
2022/02/05 03:35:01;;;;;;;27.25;14.19;;;;;;;;;;345819;153;858127;-58
2022/02/05 03:36:03;;;;;;;28.64;14.67;;;;;;;;;;347538;150;865198;-59
2022/02/05 03:37:05;;;;;;;29.46;14.32;;;;;;;;;;346757;152;864935;-58
2022/02/05 03:38:06;;;;;;;30.76;15.12;;;;;;;;;;350561;151;859145;-58
2022/02/05 03:39:08;;;;;;;34.49;15.96;;;;;;;;;;348158;149;859487;-58
2022/02/05 03:40:11;;;;;;;26.38;14.43;;;;;;;;;;346865;152;864078;-56
2022/02/05 03:41:12;;;;;;;23.47;13.21;;;;;;;;;;347584;152;859219;-56
2022/02/05 03:42:14;;;;;;;33.54;15.52;;;;;;;;;;351888;152;858442;-57
2022/02/05 03:43:16;;;;;;;33.21;15.51;;;;;;;;;;348252;152;865096;-56
2022/02/05 03:44:17;;;;;;;29.64;15.24;;;;;;;;;;347582;152;857293;-56
2022/02/05 03:45:19;;;;;;;31.44;16.07;;;;;;;;;;349140;151;865073;-56
2022/02/05 03:46:21;;;;;;;30.93;15.67;;;;;;;;;;350510;152;857312;-57
2022/02/05 03:47:23;;;;;;;30.78;13.86;;;;;;;;;;348050;152;857358;-56
2022/02/05 03:48:25;;;;;;;28.28;14.77;;;;;;;;;;351776;152;865128;-56
2022/02/05 03:49:26;;;;;;;27.04;14.26;;;;;;;;;;351390;152;866873;-57
2022/02/05 03:50:29;;;;;;;27.55;15.41;;;;;;;;;;348422;151;859065;-57
2022/02/05 03:51:31;;;;;;;34.50;15.60;;;;;;;;;;350505;152;858913;-56
2022/02/05 03:52:33;;;;;;;34.47;15.44;;;;;;;;;;350765;152;857844;-57
2022/02/05 03:53:36;;;;;;;30.26;15.50;;;;;;;;;;347920;152;865986;-56
2022/02/05 03:54:37;;;;;;;28.87;15.48;;;;;;;;;;345698;152;861107;-57
2022/02/05 03:55:44;;;;;;;29.28;14.00;;;;;;;;;;348320;152;857789;-58
2022/02/05 03:56:42;;;;;;;31.94;15.75;;;;;;;;;;348180;152;866217;-56
2022/02/05 03:57:44;;;;;;;29.51;15.96;;;;;;;;;;347060;152;857483;-56
2022/02/05 03:58:46;;;;;;;31.13;15.84;;;;;;;;;;349275;152;865759;-56
2022/02/05 03:59:49;;;;;;;33.59;15.68;;;;;;;;;;349238;152;859279;-56
2022/02/05 04:00:50;;;;;;;31.39;16.31;;;;;;;;;;346742;152;864362;-57
2022/02/05 04:01:53;;;;;;;30.69;14.36;;;;;;;;;;348464;152;858953;-60
2022/02/05 04:02:58;;;;;;;28.21;15.16;;;;;;;;;;348153;151;867221;-59
2022/02/05 04:03:58;;;;;;;35.36;16.31;;;;;;;;;;351480;152;857247;-58
2022/02/05 04:05:00;;;;;;;32.71;15.38;;;;;;;;;;349112;152;857275;-57
2022/02/05 04:06:02;;;;;;;35.16;17.35;;;;;;;;;;349410;152;867388;-57
2022/02/05 04:07:04;;;;;;;36.11;16.17;;;;;;;;;;351830;150;857533;-57
2022/02/05 04:08:09;;;;;;;34.73;17.37;;;;;;;;;;348019;152;864009;-57
2022/02/05 04:09:21;;;;;;;29.81;14.93;;;;;;;;;;348546;152;864163;-57
2022/02/05 04:10:17;;;;;;;31.13;16.49;;;;;;;;;;350483;152;857835;-56
2022/02/05 04:11:31;;;;;;;42.03;16.46;;;;;;;;;;347554;151;857296;-57
2022/02/05 04:16:22;;;;;;;32.57;15.31;;;;;;;;;;349473;149;857296;-58
2022/02/05 04:17:24;;;;;;;24.45;12.24;;;;;;;;;;341619;155;857828;-57
2022/02/05 04:18:25;;;;;;;30.20;13.84;;;;;;;;;;351277;150;859393;-56
2022/02/05 04:19:27;;;;;;;26.89;13.90;;;;;;;;;;349850;151;865642;-56
2022/02/05 04:20:29;;;;;;;31.82;16.89;;;;;;;;;;346734;152;860024;-58
2022/02/05 04:21:31;;;;;;;37.23;16.34;;;;;;;;;;347114;152;865324;-58
2022/02/05 04:22:33;;;;;;;31.29;14.13;;;;;;;;;;340848;155;857370;-58
2022/02/05 04:23:34;;;;;;;33.02;17.58;;;;;;;;;;348065;149;857503;-58
2022/02/05 04:24:36;;;;;;;31.13;15.45;;;;;;;;;;357021;149;865406;-58
2022/02/05 04:25:37;;;;;;;33.41;15.89;;;;;;;;;;353393;149;865097;-57
2022/02/05 04:26:39;;;;;;;32.72;14.74;;;;;;;;;;347828;151;865244;-57
2022/02/05 04:27:40;;;;;;;31.16;14.56;;;;;;;;;;346132;151;860189;-58
2022/02/05 04:28:42;;;;;;;33.60;15.86;;;;;;;;;;347890;151;865058;-58
2022/02/05 04:29:43;;;;;;;32.13;16.41;;;;;;;;;;347429;152;865176;-57
2022/02/05 04:30:45;;;;;;;30.29;15.03;;;;;;;;;;351612;152;857338;-57
2022/02/05 04:31:46;;;;;;;32.58;13.15;;;;;;;;;;350399;152;860851;-56
2022/02/05 04:32:49;;;;;;;28.26;14.07;;;;;;;;;;346836;152;860304;-57
2022/02/05 04:33:51;;;;;;;31.50;16.10;;;;;;;;;;345899;152;862255;-58
2022/02/05 04:34:52;;;;;;;22.42;11.17;;;;;;;;;;347457;155;865121;-56
2022/02/05 04:35:54;;;;;;;30.71;15.14;;;;;;;;;;345995;152;865493;-58
2022/02/05 04:36:57;;;;;;;28.16;14.87;;;;;;;;;;347220;152;866922;-57
2022/02/05 04:38:01;;;;;;;31.29;15.73;;;;;;;;;;347273;152;866802;-56
2022/02/05 04:39:08;;;;;;;29.19;14.03;;;;;;;;;;348108;152;857815;-57
2022/02/05 04:40:20;;;;;;;29.89;13.65;;;;;;;;;;346033;154;856325;-58
2022/02/05 04:41:16;;;;;;;27.04;14.08;;;;;;;;;;343624;152;857849;-54
2022/02/05 04:42:21;;;;;;;28.13;15.02;;;;;;;;;;345541;152;857732;-57
2022/02/05 04:51:26;;;;;;;28.08;13.28;;;;;;;;;;334985;159;859159;-60
2022/02/05 04:53:36;;;;;;;26.85;12.91;;;;;;;;;;349580;150;857110;-59
2022/02/05 04:54:53;;;;;;;30.37;13.69;;;;;;;;;;347606;151;865515;-57
2022/02/05 04:56:01;;;;;;;27.56;13.89;;;;;;;;;;347540;150;858557;-59
2022/02/05 04:58:31;;;;;;;27.86;15.14;;;;;;;;;;343565;154;859012;-57
2022/02/05 05:00:51;;;;;;;23.06;11.66;;;;;;;;;;342115;154;857466;-58
2022/02/05 05:04:06;;;;;;;30.72;13.96;;;;;;;;;;343757;154;856805;-58
2022/02/05 05:08:37;;;;;;;25.63;12.84;;;;;;;;;;352198;150;859009;-58
2022/02/05 05:11:24;;;;;;;28.09;14.10;;;;;;;;;;349287;151;857982;-59
2022/02/05 05:15:19;;;;;;;24.83;11.23;;;;;;;;;;345852;152;857364;-58
2022/02/05 05:19:48;;;;;;;25.33;12.37;;;;;;;;;;346113;152;858764;-58
2022/02/05 05:20:49;;;;;;;25.84;12.58;;;;;;;;;;344886;152;857307;-58
2022/02/05 05:21:51;;;;;;;24.36;13.04;;;;;;;;;;348321;152;866007;-59
2022/02/05 05:22:53;;;;;;;27.31;12.21;;;;;;;;;;348546;152;857296;-60
2022/02/05 05:23:55;;;;;;;25.19;13.09;;;;;;;;;;348173;152;857424;-59
2022/02/05 05:24:58;;;;;;;24.04;11.84;;;;;;;;;;347296;152;865037;-61
2022/02/05 05:26:00;;;;;;;26.51;14.03;;;;;;;;;;345864;152;866821;-59
2022/02/05 05:27:01;;;;;;;28.64;13.46;;;;;;;;;;350998;151;857268;-59
2022/02/05 05:28:03;;;;;;;24.31;13.15;;;;;;;;;;339699;156;866891;-59
2022/02/05 05:29:04;;;;;;;26.69;12.64;;;;;;;;;;344832;153;865050;-58
2022/02/05 05:30:06;;;;;;;24.53;12.65;;;;;;;;;;341002;154;857467;-57
2022/02/05 05:31:08;;;;;;;26.26;12.80;;;;;;;;;;343261;154;857504;-57
2022/02/05 05:32:09;;;;;;;22.67;12.13;;;;;;;;;;345332;152;865315;-57
2022/02/05 05:33:12;;;;;;;28.62;13.24;;;;;;;;;;344172;152;864971;-58
2022/02/05 05:34:13;;;;;;;24.71;13.65;;;;;;;;;;337734;159;861888;-55
2022/02/05 05:35:15;;;;;;;24.86;14.41;;;;;;;;;;339865;153;857856;-60
2022/02/05 05:36:17;;;;;;;25.04;13.91;;;;;;;;;;341122;156;866535;-56
2022/02/05 05:37:20;;;;;;;25.32;12.65;;;;;;;;;;344062;153;859689;-57
2022/02/05 05:38:22;;;;;;;26.70;12.85;;;;;;;;;;342420;153;864734;-59
2022/02/05 05:39:23;;;;;;;27.11;13.79;;;;;;;;;;341556;154;857890;-56
2022/02/05 05:40:26;;;;;;;22.86;11.87;;;;;;;;;;343163;154;858652;-56
2022/02/05 05:41:28;;;;;;;21.06;12.11;;;;;;;;;;337218;156;857286;-57
2022/02/05 05:42:38;;;;;;;22.23;11.39;;;;;;;;;;338546;155;864779;-59
2022/02/05 05:43:59;;;;;;;15.73;9.76;;;;;;;;;;334291;157;864986;-59
2022/02/05 05:45:14;;;;;;;21.00;12.14;;;;;;;;;;343203;153;857883;-56
2022/02/05 05:47:31;;;;;;;25.28;11.61;;;;;;;;;;341519;154;858073;-60
2022/02/05 05:48:29;;;;;;;23.07;11.63;;;;;;;;;;336509;154;864749;-57
2022/02/05 05:49:44;;;;;;;20.66;10.58;;;;;;;;;;341803;152;858096;-56
2022/02/05 05:51:44;;;;;;;24.36;11.93;;;;;;;;;;344881;153;864965;-58
2022/02/05 05:52:46;;;;;;;22.91;11.83;;;;;;;;;;346002;152;857273;-56
2022/02/05 05:53:47;;;;;;;21.74;11.14;;;;;;;;;;344184;153;857681;-57
2022/02/05 05:54:49;;;;;;;20.37;11.45;;;;;;;;;;344394;153;865580;-56
2022/02/05 05:55:50;;;;;;;23.66;11.04;;;;;;;;;;344664;152;861636;-58
2022/02/05 05:56:52;;;;;;;23.62;11.84;;;;;;;;;;344139;153;865880;-55
2022/02/05 05:57:54;;;;;;;23.48;11.81;;;;;;;;;;343124;153;864896;-58
2022/02/05 05:58:56;;;;;;;21.51;12.06;;;;;;;;;;342976;153;857413;-56
2022/02/05 05:59:58;;;;;;;24.17;11.52;;;;;;;;;;336432;156;857804;-59
2022/02/05 06:00:59;;;;;;;22.45;12.04;;;;;;;;;;343596;154;858727;-57
2022/02/05 06:02:01;;;;;;;22.07;11.10;;;;;;;;;;339376;155;864837;-57
2022/02/05 06:03:03;;;;;;;22.63;13.18;;;;;;;;;;338794;155;864911;-56
2022/02/05 06:04:05;;;;;;;29.76;14.04;;;;;;;;;;338104;155;857922;-56
2022/02/05 06:05:07;;;;;;;25.20;13.28;;;;;;;;;;338599;155;866260;-54
2022/02/05 06:06:09;;;;;;;21.05;10.96;;;;;;;;;;339448;155;864855;-55
2022/02/05 06:07:10;;;;;;;20.66;11.94;;;;;;;;;;340217;155;857544;-55
2022/02/05 06:08:12;;;;;;;22.34;12.11;;;;;;;;;;340567;155;857368;-54
2022/02/05 06:09:13;;;;;;;27.64;12.70;;;;;;;;;;337899;155;859656;-54
2022/02/05 06:10:16;;;;;;;20.89;11.02;;;;;;;;;;343606;153;866714;-54
2022/02/05 06:11:18;;;;;;;22.49;11.59;;;;;;;;;;344016;153;857312;-54
2022/02/05 06:12:20;;;;;;;22.42;12.75;;;;;;;;;;336808;155;865796;-55
2022/02/05 06:13:22;;;;;;;26.69;14.56;;;;;;;;;;345508;153;859094;-54
2022/02/05 06:14:26;;;;;;;22.73;12.00;;;;;;;;;;346225;152;858203;-54
2022/02/05 06:15:27;;;;;;;23.72;11.73;;;;;;;;;;336816;156;864812;-55
2022/02/05 06:16:32;;;;;;;23.41;12.41;;;;;;;;;;349245;151;858125;-54
2022/02/05 06:17:33;;;;;;;22.78;12.36;;;;;;;;;;349473;151;858297;-55
2022/02/05 06:18:35;;;;;;;22.48;11.70;;;;;;;;;;345811;153;856299;-55
2022/02/05 06:19:37;;;;;;;21.16;12.64;;;;;;;;;;343844;152;866026;-55
2022/02/05 06:20:39;;;;;;;24.63;12.55;;;;;;;;;;345290;152;865684;-55
2022/02/05 06:21:43;;;;;;;22.97;13.28;;;;;;;;;;336513;156;859098;-56
2022/02/05 06:22:44;;;;;;;21.71;12.68;;;;;;;;;;339307;154;864869;-56
2022/02/05 06:23:46;;;;;;;22.32;11.99;;;;;;;;;;339731;154;858548;-57
2022/02/05 06:24:48;;;;;;;23.35;11.68;;;;;;;;;;342650;154;865825;-58
2022/02/05 06:25:49;;;;;;;23.69;12.00;;;;;;;;;;344185;154;858744;-55
2022/02/05 06:26:51;;;;;;;21.61;10.82;;;;;;;;;;344661;153;862350;-55
2022/02/05 06:27:53;;;;;;;23.17;11.71;;;;;;;;;;344250;151;866090;-59
2022/02/05 06:28:54;;;;;;;22.07;11.21;;;;;;;;;;335752;156;866264;-58
2022/02/05 06:29:56;;;;;;;22.27;11.06;;;;;;;;;;343038;154;864957;-60
2022/02/05 06:30:58;;;;;;;19.76;11.04;;;;;;;;;;339358;154;860128;-58
2022/02/05 06:32:00;;;;;;;17.36;9.79;;;;;;;;;;342104;153;859219;-60
2022/02/05 06:33:01;;;;;;;23.56;12.07;;;;;;;;;;342400;154;860705;-61
2022/02/05 06:34:03;;;;;;;20.69;11.33;;;;;;;;;;339072;158;859121;-60
2022/02/05 06:35:05;;;;;;;25.31;12.15;;;;;;;;;;342964;154;865909;-58
2022/02/05 06:36:07;;;;;;;23.98;12.68;;;;;;;;;;342060;155;866856;-61
2022/02/05 06:37:08;;;;;;;20.50;10.95;;;;;;;;;;343884;152;859430;-57
2022/02/05 06:38:10;;;;;;;20.84;11.61;;;;;;;;;;345559;153;864679;-58
2022/02/05 06:39:11;;;;;;;25.10;12.94;;;;;;;;;;344068;152;858099;-57
2022/02/05 06:40:13;;;;;;;21.95;11.67;;;;;;;;;;343513;153;865007;-58
2022/02/05 06:41:16;;;;;;;20.49;10.69;;;;;;;;;;337265;156;857324;-56
2022/02/05 06:42:18;;;;;;;22.31;11.24;;;;;;;;;;341584;154;857955;-58
2022/02/05 06:43:20;;;;;;;20.00;10.53;;;;;;;;;;344035;152;864717;-56
2022/02/05 06:44:21;;;;;;;21.69;12.09;;;;;;;;;;347046;153;857353;-56
2022/02/05 06:45:23;;;;;;;24.34;13.86;;;;;;;;;;348595;151;865708;-57
2022/02/05 06:46:25;;;;;;;24.18;12.55;;;;;;;;;;347040;152;865770;-57
2022/02/05 06:47:26;;;;;;;20.09;11.19;;;;;;;;;;347706;151;858622;-57
2022/02/05 06:48:28;;;;;;;20.97;10.26;;;;;;;;;;350300;151;864872;-57
2022/02/05 06:49:30;;;;;;;23.59;12.35;;;;;;;;;;345513;152;864885;-57
2022/02/05 06:50:32;;;;;;;20.04;11.23;;;;;;;;;;344610;153;857259;-56
2022/02/05 06:51:34;;;;;;;18.36;11.43;;;;;;;;;;336005;155;863959;-57
2022/02/05 06:52:35;;;;;;;24.66;12.50;;;;;;;;;;339281;154;856409;-58
2022/02/05 06:53:38;;;;;;;23.05;11.96;;;;;;;;;;340467;154;864511;-58
2022/02/05 06:54:40;;;;;;;19.83;11.27;;;;;;;;;;337888;157;856173;-59
2022/02/05 06:55:42;;;;;;;21.16;11.09;;;;;;;;;;341867;156;857649;-57
2022/02/05 06:56:43;;;;;;;19.84;10.04;;;;;;;;;;341118;154;863831;-55
2022/02/05 06:57:45;;;;;;;19.75;11.13;;;;;;;;;;344390;153;856273;-58
2022/02/05 06:58:46;;;;;;;17.96;10.54;;;;;;;;;;348660;151;857555;-56
2022/02/05 06:59:48;;;;;;;18.28;12.15;;;;;;;;;;349264;151;856456;-56
2022/02/05 07:13:19;;;;;;;24.49;12.93;;;;;;;-2.75;70.66;99593.88;370919;142;878041;-56
2022/02/05 07:14:23;;;;;;;20.16;11.45;;;;;;;-2.92;70.82;99605.89;361980;145;856629;-59
2022/02/05 07:15:27;;;;;;;17.04;10.64;;;;;;;-2.94;71.14;99602.43;363171;145;864468;-59
2022/02/05 07:16:34;;;;;;;15.52;9.57;;;;;;;-2.94;71.14;99597.36;362046;146;863760;-58
2022/02/05 07:17:47;;;;;;;15.34;8.03;;;;;;;-2.89;70.89;99605.14;361549;145;856814;-59
2022/02/05 07:19:01;;;;;;;14.79;8.29;;;;;;;-2.84;70.85;99599.47;362230;144;864465;-59
2022/02/05 07:21:01;;;;;;;18.97;11.11;;;;;;;-2.64;70.56;99591.80;356847;147;856468;-60
2022/02/05 07:21:59;;;;;;;13.04;8.70;;;;;;;-2.61;69.67;99601.20;356996;147;855955;-59
2022/02/05 07:29:14;;;;;;;18.58;10.92;;;;;;;-2.27;69.27;99590.67;360846;146;863879;-56
2022/02/05 07:30:17;;;;;;;24.29;10.81;;;;;;;-2.23;69.31;99596.74;362836;144;856206;-57
2022/02/05 07:31:19;;;;;;;21.44;11.75;;;;;;;-2.25;69.44;99583.98;363857;145;856956;-56
2022/02/05 07:32:23;;;;;;;16.36;9.45;;;;;;;-2.23;69.31;99587.45;363363;144;856751;-56
2022/02/05 07:33:25;;;;;;;17.13;10.59;;;;;;;-2.23;69.49;99584.91;360788;145;858362;-55
2022/02/05 07:34:29;;;;;;;19.49;12.05;;;;;;;-2.24;69.67;99577.27;361171;145;857329;-55
2022/02/05 07:35:30;;;;;;;19.48;11.11;;;;;;;-2.27;69.73;99574.61;362697;145;856544;-55
2022/02/05 07:36:32;;;;;;;19.60;11.69;;;;;;;-2.34;70.39;99568.42;363171;144;863764;-59
2022/02/05 07:37:35;;;;;;;21.81;12.02;;;;;;;-2.38;70.64;99561.52;361076;145;856080;-55
2022/02/05 07:38:37;;;;;;;19.36;13.08;;;;;;;-2.41;71.13;99556.32;364963;144;856613;-56
2022/02/05 07:39:45;;;;;;;19.51;11.05;;;;;;;-2.37;71.40;99559.05;362236;144;856109;-56
2022/02/05 07:40:44;;;;;;;13.89;8.36;;;;;;;-2.43;71.77;99558.81;362926;145;857016;-56
2022/02/05 07:41:46;;;;;;;17.89;10.13;;;;;;;-2.38;71.44;99554.78;362752;145;856088;-57
2022/02/05 07:42:49;;;;;;;16.09;8.84;;;;;;;-2.34;71.27;99540.53;361123;146;856504;-57
2022/02/05 07:43:51;;;;;;;16.59;11.17;;;;;;;-2.29;70.76;99540.72;361494;145;864211;-56
2022/02/05 07:44:54;;;;;;;15.37;9.19;;;;;;;-2.27;70.86;99534.03;362590;144;856578;-56
2022/02/05 07:45:56;;;;;;;14.02;8.83;;;;;;;-2.17;70.91;99531.03;363153;147;856333;-56
2022/02/05 07:47:00;;;;;;;14.60;8.43;;;;;;;-2.12;70.67;99528.64;363247;145;856714;-56
2022/02/05 07:56:17;;;;;;;16.37;8.79;;;;;;;-1.52;68.60;99527.37;368921;141;881601;-56
2022/02/05 07:57:19;;;;;;;13.55;7.78;;;;;;;-1.58;68.64;99533.12;359661;144;858831;-55
2022/02/05 07:58:21;;;;;;;16.26;8.90;;;;;;;-1.51;68.42;99536.71;359256;146;857270;-56
2022/02/05 07:59:22;;;;;;;14.87;9.66;;;;;;;-1.62;68.33;99524.52;360699;146;865041;-57